Latest Weather Observations for Cape Moreton

IDQ60901

Issued at 2:31 am EST Thursday 23 November 2017 (issued every 10 minutes, with the page automatically refreshed every 10 minutes)

About weather observations | Map of Brisbane area stations | Latest observations for Brisbane area | Other Formats
Station Details ID: 040043 Name: CAPE MORETON LIGHTHOUSE Lat: -27.03 Lon: 153.47 Height: 99.9 m
Data from the previous 72 hours. | See also: Recent months at Cape Moreton
Date/Time
EST
Temp
°C
App
Temp
°C
Dew
Point
°C
Rel
Hum
%
Delta-T
°C
Wind Press
QNH
hPa
Press
MSL
hPa
Rain since
9am
mm
Dir  Spd
km/h
Gust
km/h
Spd
kts
Gust
kts
23/02:30am 20.5 17.3 16.3 77 2.5 ESE 28 32 15 17 1014.3 1013.8 0.2
23/02:00am 20.7 17.2 16.5 77 2.5 ESE 30 35 16 19 1014.3 1013.8 0.2
23/01:30am 20.8 18.1 16.6 77 2.6 ESE 26 33 14 18 1014.6 1014.2 0.2
23/01:00am 20.5 17.1 15.7 74 2.9 ESE 28 35 15 19 1014.7 1014.3 0.2
23/12:30am 20.8 17.0 15.8 73 3.0 ESE 30 35 16 19 1014.9 1014.5 0.2
23/12:00am 20.8 17.1 16.0 74 2.9 ESE 30 35 16 19 1015.2 1014.8 0.2
 
Date/Time
EST
Temp
°C
App
Temp
°C
Dew
Point
°C
Rel
Hum
%
Delta-T
°C
Wind Press
QNH
hPa
Press
MSL
hPa
Rain since
9am
mm
Dir  Spd
km/h
Gust
km/h
Spd
kts
Gust
kts
22/11:30pm 20.9 16.7 16.3 75 2.8 ESE 33 39 18 21 1015.4 1015.0 0.2
22/11:00pm 21.1 17.6 16.5 75 2.8 ESE 30 37 16 20 1015.8 1015.4 0.2
22/10:30pm 21.1 16.5 16.1 73 3.0 ESE 35 41 19 22 1015.9 1015.5 0.2
22/10:00pm 21.1 17.0 16.5 75 2.8 ESE 33 39 18 21 1016.0 1015.6 0.2
22/09:30pm 21.0 16.5 16.4 75 2.8 ESE 35 39 19 21 1016.1 1015.7 0.2
22/09:00pm 21.0 16.2 16.6 76 2.7 ESE 37 43 20 23 1016.1 1015.7 0.2
22/08:30pm 21.1 16.9 16.3 74 2.9 ESE 33 39 18 21 1016.0 1015.6 0.2
22/08:00pm 20.9 16.9 16.1 74 2.9 ESE 32 37 17 20 1016.2 1015.8 0.2
22/07:30pm 21.1 16.6 16.3 74 2.9 ESE 35 39 19 21 1016.0 1015.6 0.2
22/07:00pm 21.1 17.0 15.9 72 3.1 ESE 32 39 17 21 1016.2 1015.8 0.2
22/06:30pm 21.1 17.2 15.6 71 3.3 ESE 30 37 16 20 1015.8 1015.4 0.2
22/06:00pm 21.2 17.3 15.5 70 3.4 ESE 30 35 16 19 1015.6 1015.2 0.2
22/05:30pm 21.5 18.3 16.2 72 3.2 ESE 28 33 15 18 1015.6 1015.2 0.2
22/05:00pm 21.7 18.2 15.5 68 3.7 ESE 28 35 15 19 1015.2 1014.8 0.2
22/04:30pm 21.7 17.8 15.5 68 3.7 ESE 30 37 16 20 1015.1 1014.7 0.2
22/04:00pm 22.0 18.5 15.6 67 3.8 ESE 28 33 15 18 1015.3 1014.9 0.2
22/03:30pm 22.2 18.9 16.0 68 3.8 SE 28 33 15 18 1015.3 1014.9 0.2
22/03:00pm 22.0 17.7 15.4 66 3.9 ESE 32 37 17 20 1015.4 1015.0 0.2
22/02:30pm 21.4 17.1 15.3 68 3.6 ESE 32 39 17 21 1015.5 1015.1 0.2
22/02:00pm 21.4 17.1 15.3 68 3.6 ESE 32 37 17 20 1015.8 1015.4 0.2
22/01:30pm 21.3 15.9 14.0 63 4.3 ESE 35 41 19 22 1016.0 1015.6 0.2
22/01:00pm 21.3 16.8 15.4 69 3.5 ESE 33 39 18 21 1016.1 1015.7 0.2
22/12:30pm 21.3 16.2 15.8 71 3.3 ESE 37 43 20 23 1016.1 1015.7 0.2
22/12:00pm 21.3 16.8 16.3 73 3.0 ESE 35 43 19 23 1016.2 1015.8 0.2
22/11:30am 21.0 16.2 15.5 71 3.3 ESE 35 43 19 23 1016.4 1016.0 0.2
22/11:00am 21.5 17.2 16.9 75 2.8 ESE 35 43 19 23 1016.7 1016.3 0.2
22/10:30am 21.5 16.4 16.9 75 2.8 ESE 39 44 21 24 1016.6 1016.2 0.2
22/10:00am 21.1 16.2 17.3 79 2.3 ESE 39 46 21 25 1016.6 1016.2 0.2
22/09:30am 20.4 16.2 18.0 86 1.5 ESE 37 44 20 24 1016.7 1016.3 0.2
22/09:00am 19.9 15.8 18.2 90 1.1 ESE 37 44 20 24 1016.5 1016.1 2.4
22/08:30am 19.9 16.9 17.7 87 1.4 E 30 39 16 21 1017.0 1016.6 1.6
22/08:16am 19.9 16.1 17.3 85 1.6 E 33 44 18 24 1016.9 1016.5 1.6
22/08:00am 20.9 15.1 16.1 74 2.9 ESE 41 48 22 26 1016.8 1016.4 1.6
22/07:30am 20.7 14.7 15.5 72 3.1 SE 41 48 22 26 1016.6 1016.2 1.6
22/07:00am 20.2 15.3 15.4 74 2.8 SE 35 43 19 23 1016.7 1016.3 1.6
22/06:30am 19.2 17.1 18.0 93 0.7 ESE 26 32 14 17 1016.6 1016.2 1.6
22/06:00am 19.4 16.2 18.2 93 0.7 E 32 39 17 21 1016.4 1016.0 1.2
22/05:30am 18.8 14.9 17.8 94 0.6 E 35 44 19 24 1016.1 1015.7 1.2
22/05:00am 19.0 15.1 17.8 93 0.7 E 35 44 19 24 1015.8 1015.4 1.0
22/04:42am 18.5 12.0 15.6 83 1.7 ESE 44 57 24 31 1015.6 1015.2 1.0
22/04:30am 19.8 13.2 16.3 80 2.1 ESE 46 65 25 35 1015.0 1014.6 0.8
22/04:04am 18.3 12.9 16.1 87 1.3 SE 39 57 21 31 1015.3 1014.9 0.8
22/04:00am 18.0 11.2 15.8 87 1.3 SE 46 63 25 34 1015.1 1014.7 0.8
22/03:30am 20.2 14.5 16.2 78 2.4 ESE 41 54 22 29 1015.2 1014.8 0.0
22/03:00am 20.5 14.2 15.7 74 2.9 ESE 43 52 23 28 1015.0 1014.6 0.0
22/02:30am 20.9 15.3 15.4 71 3.3 ESE 39 46 21 25 1015.1 1014.7 0.0
22/02:00am 20.9 14.7 15.9 73 3.0 ESE 43 48 23 26 1015.3 1014.9 0.0
22/01:30am 20.7 14.2 15.5 72 3.1 SE 44 52 24 28 1015.4 1015.0 0.0
22/01:00am 20.6 14.2 15.4 72 3.1 ESE 43 52 23 28 1015.7 1015.3 0.0
22/12:30am 20.7 15.3 15.9 74 2.9 ESE 39 48 21 26 1016.2 1015.8 0.0
22/12:00am 20.7 14.7 15.5 72 3.1 ESE 41 52 22 28 1016.6 1016.2 0.0
 
Date/Time
EST
Temp
°C
App
Temp
°C
Dew
Point
°C
Rel
Hum
%
Delta-T
°C
Wind Press
QNH
hPa
Press
MSL
hPa
Rain since
9am
mm
Dir  Spd
km/h
Gust
km/h
Spd
kts
Gust
kts
21/11:30pm 20.8 14.4 15.4 71 3.2 ESE 43 52 23 28 1016.9 1016.5 0.0
21/11:00pm 20.8 14.1 15.1 70 3.4 ESE 44 54 24 29 1017.0 1016.6 0.0
21/10:30pm 20.9 14.1 14.8 68 3.6 ESE 44 54 24 29 1017.2 1016.8 0.0
21/10:00pm 20.8 14.1 15.1 70 3.4 ESE 44 54 24 29 1017.3 1016.9 0.0
21/09:30pm 20.9 13.7 14.8 68 3.6 ESE 46 57 25 31 1017.6 1017.2 0.0
21/09:00pm 20.9 13.8 15.0 69 3.5 ESE 46 56 25 30 1017.7 1017.3 0.0
21/08:30pm 21.1 14.1 15.4 70 3.4 ESE 46 56 25 30 1017.7 1017.3 0.0
21/08:00pm 21.3 13.6 15.6 70 3.4 ESE 50 61 27 33 1017.5 1017.1 0.0
21/07:30pm 21.1 13.4 15.4 70 3.4 ESE 50 61 27 33 1017.3 1016.9 0.0
21/07:00pm 21.0 12.9 15.3 70 3.4 ESE 52 65 28 35 1017.4 1017.0 0.0
21/06:30pm 21.0 13.0 15.8 72 3.1 ESE 52 61 28 33 1017.4 1017.0 0.0
21/06:00pm 20.5 13.1 16.3 77 2.5 SE 50 63 27 34 1017.0 1016.6 0.0
21/05:38pm 20.8 13.5 16.6 77 2.6 ESE 50 69 27 37 1016.5 1016.1 0.0
21/05:30pm 21.4 13.6 16.1 72 3.2 ESE 52 61 28 33 1016.6 1016.2 0.0
21/05:15pm 21.1 15.6 16.7 76 2.7 SE 41 54 22 29 1016.8 1016.4 0.0
21/05:05pm 19.8 12.2 15.7 77 2.4 SE 50 69 27 37 1016.7 1016.3 0.0
21/05:00pm 19.9 11.8 15.3 75 2.7 SE 52 69 28 37 1016.4 1016.0 0.0
21/04:54pm 21.3 15.5 16.9 76 2.7 SE 43 61 23 33 1016.4 1016.0 0.0
21/04:30pm 21.5 15.7 16.9 75 2.8 SE 43 50 23 27 1016.7 1016.3 0.0
21/04:00pm 22.2 15.8 16.0 68 3.7 ESE 44 54 24 29 1016.6 1016.2 0.0
21/03:30pm 22.4 16.0 15.3 64 4.3 ESE 43 50 23 27 1016.8 1016.4 0.0
21/03:00pm 22.9 17.3 16.4 67 4.0 ESE 41 48 22 26 1017.0 1016.6 0.0
21/02:30pm 22.6 15.9 16.2 67 3.9 ESE 46 56 25 30 1017.0 1016.6 0.0
21/02:00pm 22.7 16.2 16.7 69 3.7 ESE 46 56 25 30 1017.1 1016.7 0.0
21/01:30pm 23.6 18.6 17.1 67 4.0 ESE 39 46 21 25 1017.7 1017.3 0.0
21/01:00pm 23.5 17.2 16.1 63 4.5 ESE 44 54 24 29 1017.8 1017.4 0.0
21/12:30pm 23.7 18.4 16.2 63 4.6 SE 39 48 21 26 1017.9 1017.5 0.0
21/12:00pm 24.3 18.9 16.0 60 5.1 ESE 39 46 21 25 1018.0 1017.6 0.0
21/11:30am 23.9 18.4 15.7 60 5.0 ESE 39 44 21 24 1018.2 1017.8 0.0
21/11:00am 23.5 18.0 15.8 62 4.7 ESE 39 46 21 25 1018.4 1018.0 0.0
21/10:30am 24.2 17.9 15.7 59 5.2 ESE 43 50 23 27 1018.6 1018.2 0.0
21/10:00am 23.7 17.1 14.9 57 5.3 ESE 43 52 23 28 1018.7 1018.3 0.0
21/09:30am 23.7 17.5 16.0 62 4.7 ESE 43 50 23 27 1018.6 1018.2 0.0
21/09:00am 23.5 17.7 17.0 67 4.0 ESE 43 52 23 28 1018.6 1018.2 0.6
21/08:30am 22.3 15.9 15.9 67 3.9 SE 44 52 24 28 1018.4 1018.0 0.6
21/08:00am 22.9 16.6 16.2 66 4.1 SE 44 54 24 29 1018.3 1017.9 0.6
21/07:30am 22.5 15.9 16.3 68 3.8 SE 46 54 25 29 1018.3 1017.9 0.6
21/07:00am 21.8 15.0 15.9 69 3.6 SE 46 56 25 30 1018.1 1017.7 0.6
21/06:30am 21.5 13.4 15.3 68 3.7 SE 52 59 28 32 1017.7 1017.3 0.6
21/06:00am 20.7 13.2 16.1 75 2.8 ESE 50 59 27 32 1017.5 1017.1 0.6
21/05:51am 19.6 15.3 17.0 85 1.6 ESE 35 54 19 29 1017.6 1017.2 0.6
21/05:30am 19.4 13.5 17.2 87 1.3 ESE 44 52 24 28 1017.3 1016.9 0.6
21/05:01am 19.0 11.4 17.7 92 0.8 ESE 54 72 29 39 1017.2 1016.8 0.6
21/05:00am 18.9 10.7 17.2 90 1.0 ESE 56 72 30 39 1017.2 1016.8 0.4
21/04:51am 20.2 12.2 16.6 80 2.2 SE 54 72 29 39 1016.4 1016.0 0.0
21/04:30am 20.0 13.6 16.8 82 1.9 SE 46 54 25 29 1016.6 1016.2 0.0
21/04:00am 20.1 13.1 15.3 74 2.8 ESE 46 56 25 30 1016.7 1016.3 0.0
21/03:30am 20.3 12.9 16.3 78 2.4 ESE 50 63 27 34 1016.3 1015.9 0.0
21/03:00am 20.3 13.6 16.1 77 2.5 ESE 46 56 25 30 1016.5 1016.1 0.0
21/02:30am 20.1 13.3 15.9 77 2.5 SE 46 54 25 29 1016.7 1016.3 0.0
21/02:00am 20.5 14.3 17.3 82 2.0 SE 46 57 25 31 1016.8 1016.4 0.0
21/01:30am 20.7 14.9 16.1 75 2.8 ESE 41 59 22 32 1016.9 1016.5 0.0
21/01:29am 20.7 15.3 15.9 74 2.9 ESE 39 57 21 31 1016.9 1016.5 0.0
21/01:00am 20.8 15.2 15.6 72 3.1 ESE 39 48 21 26 1017.5 1017.1 0.0
21/12:30am 20.8 14.3 15.1 70 3.4 ESE 43 50 23 27 1017.5 1017.1 0.0
21/12:00am 20.8 14.7 15.1 70 3.4 ESE 41 50 22 27 1017.9 1017.5 0.0
 
Date/Time
EST
Temp
°C
App
Temp
°C
Dew
Point
°C
Rel
Hum
%
Delta-T
°C
Wind Press
QNH
hPa
Press
MSL
hPa
Rain since
9am
mm
Dir  Spd
km/h
Gust
km/h
Spd
kts
Gust
kts
20/11:30pm 21.1 14.9 15.9 72 3.1 ESE 43 52 23 28 1018.3 1017.9 0.0
20/11:00pm 21.0 14.6 15.3 70 3.4 ESE 43 54 23 29 1018.5 1018.1 0.0
20/10:30pm 21.2 15.0 16.0 72 3.1 ESE 43 50 23 27 1018.8 1018.4 0.0
20/10:00pm 21.1 14.7 15.9 72 3.1 ESE 44 52 24 28 1018.8 1018.4 0.0
20/09:30pm 20.9 15.6 16.3 75 2.8 ESE 39 50 21 27 1019.0 1018.6 0.0
20/09:00pm 20.6 13.3 15.4 72 3.1 ESE 48 61 26 33 1019.0 1018.6 0.0
20/08:30pm 21.2 14.7 15.1 68 3.6 ESE 43 52 23 28 1018.9 1018.5 0.0
20/08:00pm 21.2 14.7 15.5 70 3.4 ESE 44 54 24 29 1018.8 1018.4 0.0
20/07:30pm 21.4 14.9 15.5 69 3.5 ESE 44 52 24 28 1018.6 1018.2 0.0
20/07:00pm 21.3 14.8 15.2 68 3.6 ESE 43 52 23 28 1018.5 1018.1 0.0
20/06:30pm 21.2 14.5 14.6 66 3.9 ESE 43 52 23 28 1018.4 1018.0 0.0
20/06:00pm 21.4 14.5 15.5 69 3.5 ESE 46 54 25 29 1018.1 1017.7 0.0
20/05:30pm 21.6 15.1 15.0 66 3.9 ESE 43 52 23 28 1017.8 1017.4 0.0
20/05:00pm 21.8 15.2 15.4 67 3.8 ESE 44 54 24 29 1017.6 1017.2 0.0
20/04:30pm 22.3 16.2 16.3 69 3.7 ESE 43 56 23 30 1017.5 1017.1 0.0
20/04:00pm 22.6 15.7 15.7 65 4.2 ESE 46 56 25 30 1017.4 1017.0 0.0
20/03:30pm 22.7 16.6 16.3 67 3.9 ESE 43 52 23 28 1017.5 1017.1 0.0
20/03:00pm 22.6 15.8 15.9 66 4.0 SE 46 57 25 31 1017.4 1017.0 0.0
20/02:30pm 23.1 16.7 15.9 64 4.4 SE 44 52 24 28 1017.6 1017.2 0.0
20/02:00pm 23.1 16.8 15.7 63 4.5 SE 43 48 23 26 1017.8 1017.4 0.0
20/01:30pm 23.4 17.3 15.2 60 4.9 SE 41 46 22 25 1018.4 1018.0 0.0
20/01:00pm 23.1 17.1 15.4 62 4.6 ESE 41 48 22 26 1018.7 1018.3 0.0
20/12:30pm 23.6 18.8 15.6 61 4.8 SE 35 46 19 25 1018.8 1018.4 0.0
20/12:00pm 22.2 17.7 16.5 70 3.5 SE 35 46 19 25 1019.1 1018.7 0.0
20/11:30am 24.1 18.5 16.4 62 4.7 SE 41 50 22 27 1019.1 1018.7 0.0
20/11:00am 23.1 16.9 15.9 64 4.4 ESE 43 48 23 26 1019.4 1019.0 0.0
20/10:30am 23.6 18.0 16.6 65 4.3 SE 41 48 22 26 1019.5 1019.1 0.0
20/10:00am 24.1 18.0 16.1 61 4.9 SE 43 50 23 27 1019.2 1018.8 0.0
20/09:30am 23.4 17.2 16.0 63 4.5 ESE 43 50 23 27 1019.3 1018.9 0.0
20/09:06am 21.8 18.4 16.7 73 3.1 SE 30 52 16 28 1019.0 1018.6 0.0
20/09:00am 20.9 17.3 16.3 75 2.8 SSE 30 44 16 24 1019.3 1018.9 0.4
20/08:30am 21.5 14.7 16.7 74 2.9 SE 48 57 26 31 1018.9 1018.5 0.4
20/08:00am 22.3 15.9 16.8 71 3.4 SE 46 57 25 31 1018.7 1018.3 0.4
20/07:30am 21.2 14.2 16.4 74 2.9 ESE 48 69 26 37 1018.2 1017.8 0.4
20/07:29am 21.3 14.4 15.6 70 3.4 ESE 46 69 25 37 1018.3 1017.9 0.4
20/07:00am 22.1 16.7 17.0 73 3.1 ESE 41 44 22 24 1018.5 1018.1 0.4
20/06:30am 21.1 14.9 15.9 72 3.1 ESE 43 50 23 27 1018.0 1017.6 0.4
20/06:00am 21.4 14.8 16.4 73 3.0 ESE 46 56 25 30 1017.6 1017.2 0.4
20/05:30am 20.1 13.9 16.5 80 2.2 ESE 44 50 24 27 1017.5 1017.1 0.4
20/05:00am 19.9 13.9 16.9 83 1.8 ESE 44 56 24 30 1017.1 1016.7 0.2
20/04:53am 20.5 14.7 17.3 82 2.0 ESE 44 56 24 30 1016.9 1016.5 0.2
20/04:30am 20.0 13.6 16.0 78 2.4 SE 44 59 24 32 1016.8 1016.4 0.2
20/04:00am 20.7 15.6 16.7 78 2.4 ESE 39 48 21 26 1016.7 1016.3 0.2
20/03:30am 20.5 15.0 15.7 74 2.9 SE 39 48 21 26 1016.5 1016.1 0.2
20/03:00am 20.6 14.9 17.2 81 2.1 ESE 43 54 23 29 1016.4 1016.0 0.2

Latest Capital City Observations: Canberra | Sydney | Melbourne | Brisbane | Adelaide | Perth | Hobart | Darwin

Other Formats:

Comma delimited format used in spreadsheet applications
http://www.bom.gov.au/fwo/IDQ60901/IDQ60901.94594.axf

JavaScript Object Notation format (JSON) in row-major order
http://www.bom.gov.au/fwo/IDQ60901/IDQ60901.94594.json